createdAt,value
2022-07-28T00:00:30.993Z,14.04
2022-07-28T00:01:31.349Z,14.03
2022-07-28T00:02:31.648Z,14.02
2022-07-28T00:03:31.894Z,14.03
2022-07-28T00:04:32.213Z,14.02
2022-07-28T00:05:32.543Z,13.99
2022-07-28T00:06:32.836Z,13.97
2022-07-28T00:07:33.157Z,13.95
2022-07-28T00:08:33.484Z,13.95
2022-07-28T00:09:33.815Z,13.92
2022-07-28T00:10:34.156Z,13.91
2022-07-28T00:11:34.487Z,13.88
2022-07-28T00:12:35.786Z,13.89
2022-07-28T00:13:35.037Z,13.88
2022-07-28T00:14:35.380Z,13.87
2022-07-28T00:15:35.709Z,13.87
2022-07-28T00:16:36.101Z,13.91
2022-07-28T00:17:36.313Z,13.92
2022-07-28T00:18:36.628Z,13.92
2022-07-28T00:19:36.946Z,13.89
2022-07-28T00:20:37.281Z,13.87
2022-07-28T00:21:37.599Z,13.87
2022-07-28T00:22:37.928Z,13.84
2022-07-28T00:23:38.649Z,13.81
2022-07-28T00:24:38.519Z,13.77
2022-07-28T00:25:38.853Z,13.77
2022-07-28T00:26:39.171Z,13.75
2022-07-28T00:27:39.502Z,13.75
2022-07-28T00:28:39.821Z,13.77
2022-07-28T00:29:42.536Z,13.78
2022-07-28T00:30:41.462Z,13.77
2022-07-28T00:31:40.736Z,13.78
2022-07-28T00:32:41.012Z,13.73
2022-07-28T00:33:41.333Z,13.70
2022-07-28T00:34:42.502Z,13.69
2022-07-28T00:35:42.012Z,13.66
2022-07-28T00:36:43.313Z,13.64
2022-07-28T00:37:42.602Z,13.60
2022-07-28T00:38:43.938Z,13.60
2022-07-28T00:39:43.188Z,13.59
2022-07-28T00:40:43.525Z,13.57
2022-07-28T00:41:43.843Z,13.52
2022-07-28T00:42:44.176Z,13.52
2022-07-28T00:43:44.496Z,13.52
2022-07-28T00:44:44.825Z,13.49
2022-07-28T00:45:45.159Z,13.46
2022-07-28T00:46:45.690Z,13.42
2022-07-28T00:47:45.756Z,13.42
2022-07-28T00:48:46.171Z,13.44
2022-07-28T00:49:46.386Z,13.44
2022-07-28T00:50:46.718Z,13.44
2022-07-28T00:51:47.039Z,13.42
2022-07-28T00:52:47.368Z,13.42
2022-07-28T00:53:47.691Z,13.42
2022-07-28T00:54:48.028Z,13.38
2022-07-28T00:56:03.388Z,13.38
2022-07-28T00:56:49.672Z,13.32
2022-07-28T00:57:48.940Z,13.38
2022-07-28T00:58:49.283Z,13.32
2022-07-28T00:59:49.603Z,13.30
2022-07-28T01:00:49.945Z,13.29
2022-07-28T01:01:50.335Z,13.28
2022-07-28T01:02:50.726Z,13.20
2022-07-28T01:03:50.820Z,13.15
2022-07-28T01:04:51.153Z,13.11
2022-07-28T01:05:51.496Z,13.10
2022-07-28T01:06:51.824Z,13.07
2022-07-28T01:07:52.084Z,13.07
2022-07-28T01:08:52.414Z,13.05
2022-07-28T01:09:52.733Z,13.05
2022-07-28T01:10:53.079Z,13.08
2022-07-28T01:11:53.407Z,13.08
2022-07-28T01:12:53.735Z,13.05
2022-07-28T01:13:54.076Z,13.03
2022-07-28T01:14:54.404Z,13.05
2022-07-28T01:15:54.800Z,13.04
2022-07-28T01:16:55.036Z,13.05
2022-07-28T01:17:55.368Z,13.04
2022-07-28T01:18:55.709Z,13.04
2022-07-28T01:19:56.037Z,13.03
2022-07-28T01:20:56.392Z,13.03
2022-07-28T01:21:56.691Z,13.03
2022-07-28T01:22:57.030Z,13.00
2022-07-28T01:23:57.338Z,13.04
2022-07-28T01:24:57.668Z,12.96
2022-07-28T01:25:58.009Z,12.95
2022-07-28T01:26:58.346Z,12.96
2022-07-28T01:27:58.668Z,12.95
2022-07-28T01:28:59.045Z,12.90
2022-07-28T01:29:59.252Z,12.86
2022-07-28T01:30:59.649Z,12.83
2022-07-28T01:31:59.896Z,12.83
2022-07-28T01:33:00.220Z,12.83
2022-07-28T01:34:00.541Z,12.83
2022-07-28T01:35:00.873Z,12.83
2022-07-28T01:36:01.229Z,12.78
2022-07-28T01:37:01.558Z,12.79
2022-07-28T01:38:01.884Z,12.78
2022-07-28T01:39:02.212Z,12.79
2022-07-28T01:40:02.527Z,12.77
2022-07-28T01:41:02.884Z,12.74
2022-07-28T01:42:03.210Z,12.74
2022-07-28T01:43:03.537Z,12.74
2022-07-28T01:44:03.854Z,12.74
2022-07-28T01:45:04.197Z,12.74
2022-07-28T01:46:04.590Z,12.75
2022-07-28T01:47:04.805Z,12.77
2022-07-28T01:48:05.125Z,12.77
2022-07-28T01:49:05.487Z,12.75
2022-07-28T01:50:05.691Z,12.77
2022-07-28T01:51:06.039Z,12.74
2022-07-28T01:52:06.358Z,12.72
2022-07-28T01:53:06.703Z,12.72
2022-07-28T01:54:07.027Z,12.71
2022-07-28T01:55:07.371Z,12.71
2022-07-28T01:56:07.699Z,12.67
2022-07-28T01:57:08.038Z,12.65
2022-07-28T01:58:08.337Z,12.62
2022-07-28T01:59:08.652Z,12.60
2022-07-28T02:00:08.987Z,12.60
2022-07-28T02:01:09.380Z,12.59
2022-07-28T02:02:09.641Z,12.56
2022-07-28T02:03:09.861Z,12.56
2022-07-28T02:04:10.479Z,12.56
2022-07-28T02:05:10.552Z,12.52
2022-07-28T02:06:10.794Z,12.50
2022-07-28T02:07:11.150Z,12.52
2022-07-28T02:08:11.359Z,12.53
2022-07-28T02:09:11.716Z,12.52
2022-07-28T02:10:11.923Z,12.53
2022-07-28T02:11:12.263Z,12.53
2022-07-28T02:12:12.590Z,12.50
2022-07-28T02:13:12.933Z,12.50
2022-07-28T02:14:13.589Z,12.47
2022-07-28T02:15:13.505Z,12.45
2022-07-28T02:16:13.905Z,12.42
2022-07-28T02:17:14.159Z,12.39
2022-07-28T02:18:14.476Z,12.35
2022-07-28T02:19:14.815Z,12.34
2022-07-28T02:20:15.151Z,12.31
2022-07-28T02:21:15.479Z,12.28
2022-07-28T02:22:15.795Z,12.29
2022-07-28T02:23:16.135Z,12.28
2022-07-28T02:24:17.129Z,12.28
2022-07-28T02:25:16.694Z,12.27
2022-07-28T02:26:17.921Z,12.28
2022-07-28T02:27:17.325Z,12.28
2022-07-28T02:28:17.637Z,12.28
2022-07-28T02:29:40.419Z,12.28
2022-07-28T02:30:19.299Z,12.29
2022-07-28T02:31:18.674Z,12.29
2022-07-28T02:32:28.153Z,12.29
2022-07-28T02:33:33.082Z,12.27
2022-07-28T02:34:22.275Z,12.28
2022-07-28T02:35:19.892Z,12.24
2022-07-28T02:36:20.154Z,12.23
2022-07-28T02:37:28.156Z,12.21
2022-07-28T02:38:20.747Z,12.19
2022-07-28T02:39:21.109Z,12.19
2022-07-28T02:40:21.341Z,12.17
2022-07-28T02:41:21.710Z,12.17
2022-07-28T02:42:21.949Z,12.19
2022-07-28T02:43:22.302Z,12.19
2022-07-28T02:44:22.656Z,12.16
2022-07-28T02:45:22.734Z,12.12
2022-07-28T02:46:23.126Z,12.09
2022-07-28T02:47:23.358Z,12.09
2022-07-28T02:48:23.735Z,12.09
2022-07-28T02:49:24.019Z,12.10
2022-07-28T02:50:24.346Z,12.09
2022-07-28T02:51:24.586Z,12.05
2022-07-28T02:52:24.848Z,12.07
2022-07-28T02:53:25.062Z,12.07
2022-07-28T02:54:25.758Z,12.07
2022-07-28T02:55:25.714Z,12.09
2022-07-28T02:56:25.973Z,12.05
2022-07-28T02:57:26.242Z,11.98
2022-07-28T02:58:26.490Z,11.95
2022-07-28T02:59:26.741Z,11.86
2022-07-28T03:00:26.979Z,11.80
2022-07-28T03:01:27.378Z,11.80
2022-07-28T03:02:27.571Z,11.82
2022-07-28T03:03:27.983Z,11.80
2022-07-28T03:04:28.204Z,11.83
2022-07-28T03:05:28.599Z,11.88
2022-07-28T03:06:29.147Z,11.86
2022-07-28T03:07:29.083Z,11.86
2022-07-28T03:08:29.372Z,11.85
2022-07-28T03:09:29.603Z,11.83
2022-07-28T03:10:33.427Z,11.82
2022-07-28T03:11:30.132Z,11.80
2022-07-28T03:12:30.398Z,11.75
2022-07-28T03:13:30.670Z,11.72
2022-07-28T03:14:30.916Z,11.70
2022-07-28T03:15:31.331Z,11.73
2022-07-28T03:16:31.467Z,11.72
2022-07-28T03:17:31.691Z,11.75
2022-07-28T03:18:31.965Z,11.76
2022-07-28T03:19:32.230Z,11.78
2022-07-28T03:20:32.492Z,11.79
2022-07-28T03:21:32.762Z,11.82
2022-07-28T03:22:33.022Z,11.83
2022-07-28T03:23:33.292Z,11.80
2022-07-28T03:24:33.542Z,11.78
2022-07-28T03:25:33.785Z,11.76
2022-07-28T03:26:34.042Z,11.79
2022-07-28T03:27:34.304Z,11.79
2022-07-28T03:28:34.683Z,11.79
2022-07-28T03:29:34.783Z,11.80
2022-07-28T03:30:35.126Z,11.80
2022-07-28T03:31:35.369Z,11.80
2022-07-28T03:32:35.622Z,11.85
2022-07-28T03:33:35.876Z,11.88
2022-07-28T03:34:36.146Z,11.86
2022-07-28T03:35:36.412Z,11.85
2022-07-28T03:36:36.678Z,11.85
2022-07-28T03:37:36.960Z,11.88
2022-07-28T03:38:37.218Z,11.88
2022-07-28T03:39:37.455Z,11.91
2022-07-28T03:40:37.715Z,11.94
2022-07-28T03:41:38.008Z,11.94
2022-07-28T03:42:38.274Z,11.95
2022-07-28T03:43:38.591Z,11.96
2022-07-28T03:44:38.772Z,11.96
2022-07-28T03:45:40.935Z,11.98
2022-07-28T03:46:39.335Z,11.99
2022-07-28T03:47:39.576Z,12.01
2022-07-28T03:48:39.879Z,11.99
2022-07-28T03:49:40.102Z,11.99
2022-07-28T03:50:40.358Z,11.98
2022-07-28T03:51:40.628Z,11.98
2022-07-28T03:52:40.877Z,11.96
2022-07-28T03:53:41.140Z,11.98
2022-07-28T03:54:41.398Z,11.96
2022-07-28T03:55:41.673Z,11.96
2022-07-28T03:56:41.941Z,11.98
2022-07-28T03:57:42.201Z,11.99
2022-07-28T03:58:42.470Z,11.99
2022-07-28T03:59:42.752Z,11.99
2022-07-28T04:00:43.010Z,11.99
2022-07-28T04:01:43.326Z,11.99
2022-07-28T04:02:43.757Z,11.99
2022-07-28T04:03:44.499Z,11.98
2022-07-28T04:04:44.232Z,12.02
2022-07-28T04:05:44.452Z,12.07
2022-07-28T04:06:44.731Z,12.07
2022-07-28T04:07:45.001Z,12.09
2022-07-28T04:08:45.273Z,12.09
2022-07-28T04:09:45.537Z,12.12
2022-07-28T04:10:45.805Z,12.13
2022-07-28T04:11:46.093Z,12.12
2022-07-28T04:12:46.365Z,12.13
2022-07-28T04:13:46.649Z,12.13
2022-07-28T04:14:46.926Z,12.13
2022-07-28T04:15:47.198Z,12.13
2022-07-28T04:16:47.561Z,12.16
2022-07-28T04:17:47.727Z,12.19
2022-07-28T04:18:47.987Z,12.19
2022-07-28T04:19:48.256Z,12.20
2022-07-28T04:20:48.578Z,12.27
2022-07-28T04:21:48.837Z,12.28
2022-07-28T04:22:49.112Z,12.31
2022-07-28T04:23:49.377Z,12.31
2022-07-28T04:24:49.654Z,12.31
2022-07-28T04:25:49.908Z,12.31
2022-07-28T04:26:50.189Z,12.32
2022-07-28T04:27:50.470Z,12.35
2022-07-28T04:28:50.737Z,12.34
2022-07-28T04:29:51.019Z,12.35
2022-07-28T04:30:51.347Z,12.38
2022-07-28T04:31:51.621Z,12.42
2022-07-28T04:32:51.909Z,12.46
2022-07-28T04:33:52.179Z,12.47
2022-07-28T04:34:52.432Z,12.49
2022-07-28T04:35:52.805Z,12.50
2022-07-28T04:36:52.972Z,12.52
2022-07-28T04:37:53.243Z,12.53
2022-07-28T04:38:53.530Z,12.52
2022-07-28T04:39:53.795Z,12.54
2022-07-28T04:40:54.068Z,12.54
2022-07-28T04:41:54.346Z,12.54
2022-07-28T04:42:54.626Z,12.56
2022-07-28T04:43:54.895Z,12.56
2022-07-28T04:44:55.175Z,12.57
2022-07-28T04:45:55.524Z,12.60
2022-07-28T04:46:55.807Z,12.62
2022-07-28T04:47:56.067Z,12.65
2022-07-28T04:48:56.378Z,12.67
2022-07-28T04:49:56.665Z,12.70
2022-07-28T04:50:56.966Z,12.74
2022-07-28T04:51:57.256Z,12.75
2022-07-28T04:52:57.577Z,12.77
2022-07-28T04:53:57.829Z,12.79
2022-07-28T04:54:58.110Z,12.85
2022-07-28T04:55:58.493Z,12.86
2022-07-28T04:56:58.668Z,12.89
2022-07-28T04:57:58.919Z,12.92
2022-07-28T04:58:59.202Z,12.95
2022-07-28T04:59:59.450Z,12.97
2022-07-28T05:00:59.763Z,13.01
2022-07-28T05:01:59.979Z,13.04
2022-07-28T05:03:00.269Z,13.07
2022-07-28T05:04:00.532Z,13.10
2022-07-28T05:05:00.864Z,13.17
2022-07-28T05:06:01.114Z,13.28
2022-07-28T05:07:01.412Z,13.64
2022-07-28T05:08:02.660Z,14.20
2022-07-28T05:09:01.893Z,14.81
2022-07-28T05:10:02.263Z,15.35
2022-07-28T05:11:02.416Z,15.83
2022-07-28T05:12:02.715Z,16.27
2022-07-28T05:13:03.026Z,16.63
2022-07-28T05:14:03.306Z,16.97
2022-07-28T05:15:03.595Z,17.30
2022-07-28T05:16:03.923Z,17.59
2022-07-28T05:17:04.166Z,17.86
2022-07-28T05:18:04.455Z,18.10
2022-07-28T05:19:04.746Z,18.29
2022-07-28T05:20:05.045Z,18.50
2022-07-28T05:21:05.334Z,18.69
2022-07-28T05:22:05.643Z,18.87
2022-07-28T05:23:05.869Z,19.06
2022-07-28T05:24:06.171Z,19.21
2022-07-28T05:25:06.447Z,19.28
2022-07-28T05:26:06.739Z,19.39
2022-07-28T05:27:07.049Z,19.54
2022-07-28T05:28:07.339Z,19.68
2022-07-28T05:29:07.611Z,19.76
2022-07-28T05:30:07.905Z,19.80
2022-07-28T05:31:08.189Z,19.86
2022-07-28T05:32:17.187Z,19.96
2022-07-28T05:33:09.705Z,20.05
2022-07-28T05:34:09.024Z,20.14
2022-07-28T05:35:09.304Z,20.23
2022-07-28T05:36:09.591Z,20.29
2022-07-28T05:37:09.895Z,20.35
2022-07-28T05:38:11.109Z,20.43
2022-07-28T05:39:10.485Z,20.52
2022-07-28T05:40:10.761Z,20.51
2022-07-28T05:41:11.056Z,20.59
2022-07-28T05:42:11.356Z,20.70
2022-07-28T05:43:11.627Z,20.73
2022-07-28T05:44:12.286Z,20.80
2022-07-28T05:45:16.974Z,20.85
2022-07-28T05:46:13.444Z,20.97
2022-07-28T05:47:12.659Z,21.09
2022-07-28T05:48:12.929Z,21.10
2022-07-28T05:49:13.280Z,21.12
2022-07-28T05:50:13.494Z,21.17
2022-07-28T05:51:13.771Z,21.22
2022-07-28T05:52:14.050Z,21.32
2022-07-28T05:53:14.388Z,21.40
2022-07-28T05:54:14.975Z,21.53
2022-07-28T05:55:15.842Z,21.65
2022-07-28T05:56:15.199Z,21.80
2022-07-28T05:57:15.574Z,21.72
2022-07-28T05:58:15.724Z,21.67
2022-07-28T05:59:16.006Z,21.58
2022-07-28T06:00:16.275Z,21.59
2022-07-28T06:01:16.674Z,21.58
2022-07-28T06:02:16.811Z,21.53
2022-07-28T06:03:17.127Z,21.56
2022-07-28T06:04:26.397Z,21.64
2022-07-28T06:05:18.751Z,21.67
2022-07-28T06:06:18.120Z,21.69
2022-07-28T06:07:18.401Z,21.74
2022-07-28T06:08:18.659Z,21.75
2022-07-28T06:09:18.940Z,21.86
2022-07-28T06:10:19.218Z,21.99
2022-07-28T06:11:22.774Z,22.05
2022-07-28T06:12:19.829Z,22.12
2022-07-28T06:13:20.128Z,22.17
2022-07-28T06:14:20.468Z,22.27
2022-07-28T06:15:20.775Z,22.42
2022-07-28T06:16:21.210Z,22.52
2022-07-28T06:17:21.414Z,22.57
2022-07-28T06:18:21.712Z,22.62
2022-07-28T06:19:22.014Z,22.68
2022-07-28T06:20:22.275Z,22.68
2022-07-28T06:21:22.554Z,22.73
2022-07-28T06:22:22.834Z,22.79
2022-07-28T06:23:23.135Z,22.82
2022-07-28T06:24:23.416Z,22.83
2022-07-28T06:25:23.709Z,22.85
2022-07-28T06:26:24.105Z,22.83
2022-07-28T06:27:24.220Z,22.83
2022-07-28T06:28:24.527Z,22.79
2022-07-28T06:29:24.762Z,22.79
2022-07-28T06:30:25.045Z,22.79
2022-07-28T06:31:25.372Z,22.76
2022-07-28T06:32:25.571Z,22.72
2022-07-28T06:33:25.957Z,22.65
2022-07-28T06:34:26.113Z,22.62
2022-07-28T06:35:26.383Z,22.58
2022-07-28T06:36:26.773Z,22.64
2022-07-28T06:37:26.937Z,22.64
2022-07-28T06:38:27.204Z,22.67
2022-07-28T06:39:27.563Z,22.75
2022-07-28T06:40:27.697Z,22.80
2022-07-28T06:41:28.010Z,22.79
2022-07-28T06:42:28.276Z,22.85
2022-07-28T06:43:29.627Z,22.85
2022-07-28T06:44:48.262Z,22.85
2022-07-28T06:45:30.090Z,22.90
2022-07-28T06:46:29.489Z,22.76
2022-07-28T06:47:29.759Z,22.68
2022-07-28T06:48:30.070Z,22.64
2022-07-28T06:49:30.390Z,22.58
2022-07-28T06:50:30.560Z,22.55
2022-07-28T06:51:30.899Z,22.47
2022-07-28T06:52:31.154Z,22.43
2022-07-28T06:53:33.762Z,22.36
2022-07-28T06:54:31.702Z,22.18
2022-07-28T06:55:35.343Z,22.06
2022-07-28T06:56:32.223Z,21.92
2022-07-28T06:57:33.569Z,21.90
2022-07-28T06:58:32.813Z,21.68
2022-07-28T06:59:33.074Z,21.47
2022-07-28T07:00:33.466Z,21.35
2022-07-28T07:01:33.735Z,21.19
2022-07-28T07:02:33.876Z,21.10
2022-07-28T07:03:34.189Z,20.99
2022-07-28T07:04:34.589Z,20.76
2022-07-28T07:05:34.810Z,20.54
2022-07-28T07:06:35.080Z,20.29
2022-07-28T07:07:39.711Z,20.06
2022-07-28T07:08:36.580Z,19.87
2022-07-28T07:09:35.938Z,19.77
2022-07-28T07:10:36.199Z,19.66
2022-07-28T07:11:36.479Z,19.48
2022-07-28T07:12:36.765Z,19.37
2022-07-28T07:13:37.090Z,19.26
2022-07-28T07:14:37.335Z,19.25
2022-07-28T07:15:37.613Z,19.13
2022-07-28T07:16:37.918Z,18.92
2022-07-28T07:17:38.178Z,18.82
2022-07-28T07:18:38.436Z,18.80
2022-07-28T07:19:38.708Z,18.76
2022-07-28T07:20:38.992Z,18.75
2022-07-28T07:21:39.283Z,18.76
2022-07-28T07:22:39.544Z,18.81
2022-07-28T07:23:39.818Z,18.78
2022-07-28T07:24:40.082Z,18.76
2022-07-28T07:25:40.339Z,18.76
2022-07-28T07:26:40.617Z,18.75
2022-07-28T07:27:40.886Z,18.75
2022-07-28T07:28:41.138Z,18.76
2022-07-28T07:29:41.397Z,18.75
2022-07-28T07:30:41.649Z,18.82
2022-07-28T07:31:41.981Z,18.90
2022-07-28T07:32:42.252Z,18.99
2022-07-28T07:33:42.510Z,19.07
2022-07-28T07:34:42.760Z,19.07
2022-07-28T07:35:43.041Z,19.08
2022-07-28T07:36:43.321Z,19.16
2022-07-28T07:37:43.571Z,19.23
2022-07-28T07:38:43.864Z,19.32
2022-07-28T07:39:44.139Z,19.33
2022-07-28T07:40:44.423Z,19.37
2022-07-28T07:41:44.702Z,19.40
2022-07-28T07:42:45.036Z,19.43
2022-07-28T07:43:47.755Z,19.48
2022-07-28T07:44:50.209Z,19.55
2022-07-28T07:45:45.987Z,19.58
2022-07-28T07:46:46.441Z,19.56
2022-07-28T07:47:47.466Z,19.55
2022-07-28T07:48:46.835Z,19.58
2022-07-28T07:49:47.111Z,19.59
2022-07-28T07:50:51.835Z,19.62
2022-07-28T07:51:48.648Z,19.63
2022-07-28T07:52:47.870Z,19.62
2022-07-28T07:53:48.109Z,19.65
2022-07-28T07:54:48.370Z,19.68
2022-07-28T07:55:48.638Z,19.71
2022-07-28T07:56:48.909Z,19.69
2022-07-28T07:57:49.213Z,19.68
2022-07-28T07:58:53.620Z,19.66
2022-07-28T07:59:50.810Z,19.62
2022-07-28T08:00:50.111Z,19.54
2022-07-28T08:01:50.418Z,19.47
2022-07-28T08:02:50.643Z,19.46
2022-07-28T08:03:50.885Z,19.47
2022-07-28T08:04:52.189Z,19.48
2022-07-28T08:05:51.555Z,19.43
2022-07-28T08:06:51.823Z,19.41
2022-07-28T08:07:52.074Z,19.46
2022-07-28T08:08:52.369Z,19.43
2022-07-28T08:09:52.625Z,19.46
2022-07-28T08:10:52.876Z,19.44
2022-07-28T08:11:53.158Z,19.46
2022-07-28T08:12:53.404Z,19.43
2022-07-28T08:13:53.682Z,19.44
2022-07-28T08:14:53.937Z,19.47
2022-07-28T08:15:54.246Z,19.46
2022-07-28T08:16:54.487Z,19.46
2022-07-28T08:17:54.770Z,19.48
2022-07-28T08:18:55.021Z,19.51
2022-07-28T08:19:55.301Z,19.58
2022-07-28T08:20:55.566Z,19.66
2022-07-28T08:21:55.866Z,19.74
2022-07-28T08:22:56.130Z,19.81
2022-07-28T08:23:56.414Z,19.88
2022-07-28T08:24:56.692Z,19.91
2022-07-28T08:25:56.964Z,19.91
2022-07-28T08:26:57.253Z,19.94
2022-07-28T08:27:57.513Z,19.88
2022-07-28T08:28:57.806Z,19.86
2022-07-28T08:29:58.054Z,19.86
2022-07-28T08:30:58.394Z,19.87
2022-07-28T08:31:58.684Z,19.91
2022-07-28T08:32:58.944Z,19.95
2022-07-28T08:33:59.206Z,19.98
2022-07-28T08:35:29.970Z,20.08
2022-07-28T08:36:00.824Z,20.13
2022-07-28T08:37:00.155Z,20.21
2022-07-28T08:38:00.399Z,20.28
2022-07-28T08:39:00.659Z,20.33
2022-07-28T08:40:00.920Z,20.36
2022-07-28T08:41:01.177Z,20.39
2022-07-28T08:42:01.448Z,20.42
2022-07-28T08:43:01.703Z,20.43
2022-07-28T08:44:01.951Z,20.47
2022-07-28T08:45:02.220Z,20.51
2022-07-28T08:46:02.562Z,20.54
2022-07-28T08:47:02.788Z,20.55
2022-07-28T08:48:10.274Z,20.55
2022-07-28T08:49:04.308Z,20.51
2022-07-28T08:50:03.513Z,20.50
2022-07-28T08:51:03.763Z,20.41
2022-07-28T08:52:04.024Z,20.39
2022-07-28T08:53:04.303Z,20.39
2022-07-28T08:54:04.574Z,20.38
2022-07-28T08:55:04.815Z,20.38
2022-07-28T08:56:05.076Z,20.36
2022-07-28T08:57:05.339Z,20.33
2022-07-28T08:58:05.584Z,20.33
2022-07-28T08:59:05.857Z,20.31
2022-07-28T09:00:06.140Z,20.32
2022-07-28T09:01:06.393Z,20.32
2022-07-28T09:02:06.719Z,20.28
2022-07-28T09:03:07.012Z,20.24
2022-07-28T09:04:07.310Z,20.20
2022-07-28T09:05:07.567Z,20.23
2022-07-28T09:06:07.831Z,20.21
2022-07-28T09:07:08.091Z,20.14
2022-07-28T09:08:08.372Z,20.11
2022-07-28T09:09:08.621Z,20.10
2022-07-28T09:10:08.880Z,20.10
2022-07-28T09:11:09.156Z,20.10
2022-07-28T09:12:09.412Z,20.03
2022-07-28T09:13:09.709Z,20.02
2022-07-28T09:14:10.026Z,20.01
2022-07-28T09:15:10.264Z,20.03
2022-07-28T09:16:10.566Z,20.10
2022-07-28T09:17:10.856Z,20.16
2022-07-28T09:18:11.109Z,20.23
2022-07-28T09:19:11.356Z,20.23
2022-07-28T09:20:11.802Z,20.21
2022-07-28T09:21:11.944Z,20.26
2022-07-28T09:22:12.255Z,20.26
2022-07-28T09:23:42.158Z,20.26
2022-07-28T09:24:14.081Z,20.23
2022-07-28T09:25:13.175Z,20.21
2022-07-28T09:26:13.467Z,20.21
2022-07-28T09:27:13.801Z,20.28
2022-07-28T09:28:14.063Z,20.18
2022-07-28T09:29:14.325Z,20.13
2022-07-28T09:30:14.605Z,20.01
2022-07-28T09:31:14.894Z,19.83
2022-07-28T09:32:15.193Z,19.76
2022-07-28T09:33:42.475Z,19.76
2022-07-28T09:34:17.168Z,19.77
2022-07-28T09:35:16.004Z,19.86
2022-07-28T09:36:16.453Z,19.92
2022-07-28T09:37:16.634Z,19.98
2022-07-28T09:38:16.747Z,20.03
2022-07-28T09:39:17.014Z,20.10
2022-07-28T09:40:17.284Z,20.11
2022-07-28T09:41:17.557Z,20.05
2022-07-28T09:42:17.826Z,20.03
2022-07-28T09:43:18.125Z,19.98
2022-07-28T09:44:18.397Z,19.88
2022-07-28T09:45:23.689Z,19.86
2022-07-28T09:46:20.165Z,19.83
2022-07-28T09:47:19.462Z,19.77
2022-07-28T09:48:19.637Z,19.76
2022-07-28T09:49:21.931Z,19.77
2022-07-28T09:50:21.121Z,19.80
2022-07-28T09:51:20.307Z,19.83
2022-07-28T09:52:20.569Z,19.86
2022-07-28T09:53:20.832Z,19.87
2022-07-28T09:54:21.071Z,19.87
2022-07-28T09:55:21.332Z,19.87
2022-07-28T09:56:21.593Z,19.92
2022-07-28T09:57:22.860Z,19.91
2022-07-28T09:58:22.193Z,19.77
2022-07-28T09:59:23.946Z,19.68
2022-07-28T10:00:22.815Z,19.61
2022-07-28T10:01:24.412Z,19.62
2022-07-28T10:02:23.533Z,19.66
2022-07-28T10:03:23.706Z,19.69
2022-07-28T10:04:23.967Z,19.74
2022-07-28T10:05:24.234Z,19.80
2022-07-28T10:06:24.475Z,19.87
2022-07-28T10:07:24.737Z,19.94
2022-07-28T10:08:24.986Z,19.96
2022-07-28T10:09:25.237Z,20.03
2022-07-28T10:10:25.586Z,20.10
2022-07-28T10:11:25.849Z,20.17
2022-07-28T10:12:26.122Z,20.21
2022-07-28T10:13:26.374Z,20.24
2022-07-28T10:14:26.648Z,20.31
2022-07-28T10:15:26.921Z,20.32
2022-07-28T10:16:27.208Z,20.33
2022-07-28T10:17:27.493Z,20.33
2022-07-28T10:18:27.761Z,20.33
2022-07-28T10:19:28.040Z,20.32
2022-07-28T10:20:28.304Z,20.33
2022-07-28T10:21:28.545Z,20.38
2022-07-28T10:22:28.885Z,20.42
2022-07-28T10:23:29.154Z,20.43
2022-07-28T10:24:29.470Z,20.43
2022-07-28T10:25:29.723Z,20.38
2022-07-28T10:26:30.016Z,20.29
2022-07-28T10:27:30.292Z,20.29
2022-07-28T10:28:30.557Z,20.31
2022-07-28T10:29:30.817Z,20.23
2022-07-28T10:30:31.110Z,20.24
2022-07-28T10:31:31.468Z,20.29
2022-07-28T10:32:31.784Z,20.32
2022-07-28T10:33:32.008Z,20.35
2022-07-28T10:34:32.259Z,20.35
2022-07-28T10:35:32.558Z,20.39
2022-07-28T10:36:33.774Z,20.43
2022-07-28T10:37:33.099Z,20.50
2022-07-28T10:38:33.360Z,20.57
2022-07-28T10:39:33.630Z,20.62
2022-07-28T10:40:33.893Z,20.61
2022-07-28T10:41:34.141Z,20.52
2022-07-28T10:42:34.412Z,20.51
2022-07-28T10:43:34.672Z,20.50
2022-07-28T10:44:34.932Z,20.50
2022-07-28T10:46:03.328Z,20.43
2022-07-28T10:46:36.485Z,20.47
2022-07-28T10:47:36.415Z,20.50
2022-07-28T10:48:36.113Z,20.54
2022-07-28T10:49:36.228Z,20.55
2022-07-28T10:50:36.518Z,20.41
2022-07-28T10:51:48.705Z,20.33
2022-07-28T10:52:47.329Z,20.33
2022-07-28T10:53:38.288Z,20.33
2022-07-28T10:54:37.622Z,20.36
2022-07-28T10:55:37.780Z,20.43
2022-07-28T10:56:38.093Z,20.51
2022-07-28T10:57:38.349Z,20.52
2022-07-28T10:58:38.588Z,20.55
2022-07-28T10:59:38.860Z,20.51
2022-07-28T11:00:55.050Z,20.48
2022-07-28T11:01:49.781Z,20.47
2022-07-28T11:02:40.815Z,20.51
2022-07-28T11:03:40.576Z,20.57
2022-07-28T11:04:40.274Z,20.61
2022-07-28T11:05:40.547Z,20.61
2022-07-28T11:06:40.812Z,20.64
2022-07-28T11:07:41.085Z,20.72
2022-07-28T11:08:41.333Z,20.74
2022-07-28T11:09:41.598Z,20.79
2022-07-28T11:10:41.924Z,20.84
2022-07-28T11:11:42.174Z,20.85
2022-07-28T11:12:42.445Z,20.84
2022-07-28T11:13:43.644Z,20.85
2022-07-28T11:14:42.966Z,20.91
2022-07-28T11:15:43.302Z,20.89
2022-07-28T11:16:43.570Z,20.92
2022-07-28T11:17:43.847Z,20.95
2022-07-28T11:18:44.078Z,20.89
2022-07-28T11:20:16.473Z,20.91
2022-07-28T11:20:45.677Z,20.92
2022-07-28T11:21:46.255Z,20.95
2022-07-28T11:22:46.439Z,20.99
2022-07-28T11:23:46.454Z,21.03
2022-07-28T11:24:45.908Z,21.06
2022-07-28T11:25:46.160Z,21.09
2022-07-28T11:26:46.431Z,21.13
2022-07-28T11:27:46.702Z,21.17
2022-07-28T11:28:46.947Z,21.19
2022-07-28T11:29:47.212Z,21.21
2022-07-28T11:30:47.513Z,21.22
2022-07-28T11:31:47.766Z,21.22
2022-07-28T11:32:48.025Z,21.28
2022-07-28T11:33:48.275Z,21.28
2022-07-28T11:34:48.525Z,21.29
2022-07-28T11:35:48.804Z,21.28
2022-07-28T11:36:49.058Z,21.22
2022-07-28T11:37:49.383Z,21.09
2022-07-28T11:38:49.637Z,21.06
2022-07-28T11:39:49.939Z,21.04
2022-07-28T11:40:50.126Z,20.99
2022-07-28T11:41:50.433Z,20.99
2022-07-28T11:42:50.737Z,21.01
2022-07-28T11:43:51.090Z,21.03
2022-07-28T11:44:51.279Z,21.01
2022-07-28T11:45:56.036Z,20.98
2022-07-28T11:46:52.554Z,20.94
2022-07-28T11:47:52.221Z,20.95
2022-07-28T11:48:52.599Z,21.03
2022-07-28T11:49:52.825Z,21.03
2022-07-28T11:50:53.073Z,21.07
2022-07-28T11:51:53.306Z,21.09
2022-07-28T11:52:53.575Z,21.13
2022-07-28T11:53:53.890Z,21.12
2022-07-28T11:54:54.105Z,21.16
2022-07-28T11:56:02.117Z,21.19
2022-07-28T11:56:55.724Z,21.25
2022-07-28T11:57:55.084Z,21.22
2022-07-28T11:58:55.349Z,21.24
2022-07-28T11:59:55.618Z,21.25
2022-07-28T12:00:56.822Z,21.19
2022-07-28T12:01:56.119Z,21.14
2022-07-28T12:02:56.430Z,21.12
2022-07-28T12:03:58.982Z,21.10
2022-07-28T12:04:56.909Z,21.04
2022-07-28T12:05:57.195Z,20.99
2022-07-28T12:06:57.421Z,20.97
2022-07-28T12:07:57.703Z,20.99
2022-07-28T12:08:57.955Z,21.03
2022-07-28T12:09:58.212Z,21.09
2022-07-28T12:10:58.472Z,21.14
2022-07-28T12:11:58.741Z,21.17
2022-07-28T12:12:59.125Z,21.21
2022-07-28T12:13:59.243Z,21.24
2022-07-28T12:15:04.762Z,21.27
2022-07-28T12:16:00.834Z,21.31
2022-07-28T12:17:00.249Z,21.32
2022-07-28T12:18:00.420Z,21.32
2022-07-28T12:19:00.715Z,21.37
2022-07-28T12:20:00.957Z,21.40
2022-07-28T12:21:05.054Z,21.40
2022-07-28T12:22:01.467Z,21.42
2022-07-28T12:23:01.825Z,21.42
2022-07-28T12:24:02.119Z,21.43
2022-07-28T12:25:02.311Z,21.43
2022-07-28T12:26:02.669Z,21.34
2022-07-28T12:27:02.977Z,21.28
2022-07-28T12:28:03.231Z,21.24
2022-07-28T12:29:03.529Z,21.19
2022-07-28T12:30:04.948Z,21.14
2022-07-28T12:31:04.104Z,21.12
2022-07-28T12:32:05.635Z,21.07
2022-07-28T12:33:04.781Z,21.03
2022-07-28T12:34:05.061Z,20.97
2022-07-28T12:35:05.324Z,20.94
2022-07-28T12:36:05.593Z,20.94
2022-07-28T12:37:05.897Z,20.94
2022-07-28T12:38:06.136Z,20.92
2022-07-28T12:39:10.815Z,20.87
2022-07-28T12:40:07.756Z,20.87
2022-07-28T12:41:07.073Z,20.89
2022-07-28T12:42:07.378Z,20.91
2022-07-28T12:43:07.599Z,20.87
2022-07-28T12:44:07.961Z,20.80
2022-07-28T12:45:08.099Z,20.79
2022-07-28T12:46:08.420Z,20.76
2022-07-28T12:47:08.610Z,20.73
2022-07-28T12:48:08.882Z,20.72
2022-07-28T12:49:09.190Z,20.72
2022-07-28T12:50:09.449Z,20.76
2022-07-28T12:51:11.211Z,20.84
2022-07-28T12:52:10.014Z,20.85
2022-07-28T12:53:10.299Z,20.82
2022-07-28T12:54:10.639Z,20.79
2022-07-28T12:55:10.813Z,20.77
2022-07-28T12:56:11.073Z,20.74